createdAt,value
2023-02-28T00:00:16.658Z,33.97
2023-02-28T00:02:59.105Z,35.38
2023-02-28T00:05:47.368Z,37.35
2023-02-28T00:08:29.060Z,37.65
2023-02-28T00:11:20.446Z,36.72
2023-02-28T00:14:02.074Z,39.70
2023-02-28T00:16:50.435Z,44.28
2023-02-28T00:19:33.098Z,35.38
2023-02-28T00:22:22.529Z,34.13
2023-02-28T00:25:05.074Z,31.83
2023-02-28T00:27:58.062Z,28.70
2023-02-28T00:30:41.682Z,24.83
2023-02-28T00:33:30.056Z,23.35
2023-02-28T00:36:18.556Z,20.48
2023-02-28T00:39:07.094Z,20.48
2023-02-28T00:41:49.333Z,18.33
2023-02-28T00:44:38.063Z,17.20
2023-02-28T00:47:20.389Z,17.27
2023-02-28T00:50:13.120Z,16.75
2023-02-28T00:53:08.055Z,17.23
2023-02-28T00:55:51.544Z,17.35
2023-02-28T00:58:41.041Z,17.17
2023-02-28T01:01:30.403Z,18.35
2023-02-28T01:04:19.153Z,20.55
2023-02-28T01:07:01.269Z,21.60
2023-02-28T01:09:50.096Z,22.33
2023-02-28T01:12:40.399Z,20.20
2023-02-28T01:15:25.201Z,20.67
2023-02-28T01:18:07.395Z,21.17
2023-02-28T01:20:56.207Z,19.88
2023-02-28T01:23:45.392Z,18.13
2023-02-28T01:26:31.199Z,16.80
2023-02-28T01:29:17.287Z,15.50
2023-02-28T01:32:08.107Z,15.70
2023-02-28T01:34:50.318Z,13.60
2023-02-28T01:37:39.113Z,14.00
2023-02-28T01:40:28.108Z,12.48
2023-02-28T01:43:17.118Z,13.25
2023-02-28T01:46:01.043Z,12.02
2023-02-28T01:49:01.103Z,12.15
2023-02-28T01:52:08.886Z,11.32
2023-02-28T01:55:03.090Z,10.45
2023-02-28T01:57:50.329Z,10.07
2023-02-28T02:00:42.046Z,10.05
2023-02-28T02:03:34.083Z,10.77
2023-02-28T02:06:16.331Z,11.55
2023-02-28T02:09:05.480Z,11.00
2023-02-28T02:11:55.399Z,10.63
2023-02-28T02:14:53.033Z,10.07
2023-02-28T02:17:46.563Z,11.60
2023-02-28T02:20:56.102Z,12.35
2023-02-28T02:24:09.080Z,11.27
2023-02-28T02:27:16.339Z,11.18
2023-02-28T02:30:12.108Z,9.95
2023-02-28T02:33:20.410Z,10.40
2023-02-28T02:36:31.134Z,10.27
2023-02-28T02:39:26.370Z,10.63
2023-02-28T02:42:25.039Z,10.93
2023-02-28T02:45:21.437Z,11.43
2023-02-28T02:48:12.072Z,11.25
2023-02-28T02:51:18.391Z,10.77
2023-02-28T02:54:24.152Z,11.52
2023-02-28T02:57:10.663Z,11.38
2023-02-28T03:00:03.120Z,11.02
2023-02-28T03:02:47.311Z,12.32
2023-02-28T03:05:49.093Z,12.00
2023-02-28T03:08:31.300Z,12.40
2023-02-28T03:11:24.071Z,13.88
2023-02-28T03:14:24.397Z,14.60
2023-02-28T03:17:41.010Z,14.23
2023-02-28T03:20:39.078Z,15.63
2023-02-28T03:24:02.410Z,16.38
2023-02-28T03:26:53.100Z,15.20
2023-02-28T03:29:45.943Z,16.95
2023-02-28T03:32:45.081Z,19.77
2023-02-28T03:35:48.370Z,21.98
2023-02-28T03:38:51.155Z,22.92
2023-02-28T03:41:54.375Z,23.20
2023-02-28T03:45:29.083Z,23.87
2023-02-28T03:51:23.356Z,26.38
2023-02-28T03:54:35.120Z,24.38
2023-02-28T03:58:00.359Z,23.77
2023-02-28T04:00:57.123Z,22.55
2023-02-28T04:03:39.338Z,19.85
2023-02-28T04:06:30.086Z,16.05
2023-02-28T04:12:02.087Z,13.95
2023-02-28T04:14:44.373Z,12.73
2023-02-28T04:17:33.072Z,12.75
2023-02-28T04:20:23.375Z,10.52
2023-02-28T04:23:12.068Z,10.55
2023-02-28T04:26:01.095Z,10.57
2023-02-28T04:28:43.309Z,8.35
2023-02-28T04:31:32.330Z,7.93
2023-02-28T04:34:21.598Z,7.78
2023-02-28T04:37:14.193Z,7.88
2023-02-28T04:40:03.395Z,9.43
2023-02-28T04:42:45.143Z,7.88
2023-02-28T04:45:27.404Z,7.20
2023-02-28T04:48:16.053Z,8.25
2023-02-28T04:51:03.628Z,7.90
2023-02-28T04:53:54.022Z,7.50
2023-02-28T04:56:43.580Z,8.20
2023-02-28T04:59:26.149Z,7.85
2023-02-28T05:02:08.889Z,7.43
2023-02-28T05:04:58.120Z,6.45
2023-02-28T05:07:46.371Z,6.38
2023-02-28T05:10:29.029Z,6.72
2023-02-28T05:13:14.862Z,6.25
2023-02-28T05:16:04.114Z,6.95
2023-02-28T05:18:55.735Z,6.93
2023-02-28T05:22:03.077Z,6.13
2023-02-28T05:24:52.178Z,6.40
2023-02-28T05:27:34.349Z,5.72
2023-02-28T05:30:24.074Z,6.15
2023-02-28T05:33:07.362Z,5.43
2023-02-28T05:35:56.150Z,5.82
2023-02-28T05:38:39.046Z,6.28
2023-02-28T05:41:29.399Z,6.35
2023-02-28T05:44:18.107Z,6.07
2023-02-28T05:47:06.347Z,6.78
2023-02-28T05:49:48.133Z,7.97
2023-02-28T05:52:44.047Z,6.65
2023-02-28T05:55:32.476Z,7.15
2023-02-28T05:58:15.056Z,7.78
2023-02-28T06:01:04.297Z,6.75
2023-02-28T06:03:46.116Z,5.95
2023-02-28T06:06:28.372Z,5.90
2023-02-28T06:09:17.135Z,6.30
2023-02-28T06:12:09.219Z,7.40
2023-02-28T06:14:52.064Z,6.32
2023-02-28T06:17:41.057Z,5.72
2023-02-28T06:20:23.377Z,5.20
2023-02-28T06:23:12.113Z,6.47
2023-02-28T06:25:55.386Z,6.07
2023-02-28T06:28:44.079Z,6.72
2023-02-28T06:31:28.274Z,7.13
2023-02-28T06:34:17.070Z,7.22
2023-02-28T06:37:04.168Z,9.35
2023-02-28T06:39:54.145Z,8.85
2023-02-28T06:42:36.338Z,8.10
2023-02-28T06:45:25.018Z,6.40
2023-02-28T06:48:07.496Z,5.93
2023-02-28T06:50:56.129Z,6.60
2023-02-28T06:53:45.358Z,5.47
2023-02-28T06:56:29.509Z,5.38
2023-02-28T06:59:17.419Z,5.32
2023-02-28T07:02:00.251Z,5.22
2023-02-28T07:04:48.869Z,4.20
2023-02-28T07:07:31.054Z,4.68
2023-02-28T07:10:20.541Z,4.93
2023-02-28T07:13:02.176Z,4.95
2023-02-28T07:15:50.353Z,5.20
2023-02-28T07:18:33.150Z,4.60
2023-02-28T07:21:22.622Z,4.15
2023-02-28T07:24:06.101Z,5.70
2023-02-28T07:26:54.377Z,5.72
2023-02-28T07:29:37.133Z,6.72
2023-02-28T07:32:26.433Z,7.13
2023-02-28T07:35:09.067Z,6.90
2023-02-28T07:37:58.356Z,5.63
2023-02-28T07:40:41.110Z,5.10
2023-02-28T07:43:29.369Z,5.05
2023-02-28T07:46:17.214Z,4.70
2023-02-28T07:49:05.333Z,4.13
2023-02-28T07:51:48.134Z,5.13
2023-02-28T07:54:37.098Z,4.85
2023-02-28T07:57:19.494Z,5.85
2023-02-28T08:00:08.108Z,4.55
2023-02-28T08:02:51.551Z,4.72
2023-02-28T08:05:41.040Z,4.57
2023-02-28T08:08:24.531Z,4.70
2023-02-28T08:11:13.389Z,4.05
2023-02-28T08:13:56.361Z,5.00
2023-02-28T08:16:45.114Z,4.57
2023-02-28T08:19:27.386Z,4.25
2023-02-28T08:22:16.043Z,5.03
2023-02-28T08:24:58.343Z,6.30
2023-02-28T08:27:47.097Z,5.07
2023-02-28T08:30:29.330Z,4.70
2023-02-28T08:33:18.045Z,4.55
2023-02-28T08:36:05.410Z,4.32
2023-02-28T08:38:55.044Z,5.13
2023-02-28T08:41:37.357Z,5.03
2023-02-28T08:44:26.074Z,4.55
2023-02-28T08:47:08.842Z,5.97
2023-02-28T08:49:58.081Z,5.15
2023-02-28T08:52:47.575Z,6.63
2023-02-28T08:55:30.094Z,3.58
2023-02-28T08:58:12.260Z,3.50
2023-02-28T09:01:01.122Z,3.53
2023-02-28T09:03:51.538Z,3.97
2023-02-28T09:06:36.052Z,4.03
2023-02-28T09:09:18.720Z,3.70
2023-02-28T09:12:08.079Z,4.15
2023-02-28T09:14:56.377Z,3.65
2023-02-28T09:17:39.016Z,4.10
2023-02-28T09:20:28.300Z,4.22
2023-02-28T09:23:11.068Z,4.72
2023-02-28T09:26:02.048Z,3.77
2023-02-28T09:28:51.066Z,4.03
2023-02-28T09:31:39.350Z,3.92
2023-02-28T09:34:22.136Z,3.28
2023-02-28T09:37:10.392Z,3.90
2023-02-28T09:39:52.990Z,3.72
2023-02-28T09:42:43.412Z,4.50
2023-02-28T09:45:39.131Z,3.90
2023-02-28T09:48:34.441Z,4.18
2023-02-28T09:51:25.050Z,4.45
2023-02-28T09:54:21.942Z,4.20
2023-02-28T09:57:39.145Z,4.03
2023-02-28T10:00:32.336Z,4.13
2023-02-28T10:03:45.057Z,4.35
2023-02-28T10:06:32.203Z,4.40
2023-02-28T10:09:39.006Z,4.32
2023-02-28T10:12:24.511Z,4.18
2023-02-28T10:15:14.010Z,4.47
2023-02-28T10:18:08.464Z,5.38
2023-02-28T10:21:02.071Z,4.25
2023-02-28T10:23:48.744Z,4.57
2023-02-28T10:26:41.079Z,5.00
2023-02-28T10:29:24.336Z,4.00
2023-02-28T10:32:13.102Z,4.75
2023-02-28T10:35:07.257Z,5.57
2023-02-28T10:38:00.207Z,5.03
2023-02-28T10:40:44.387Z,4.45
2023-02-28T10:43:33.053Z,4.50
2023-02-28T10:46:27.753Z,4.80
2023-02-28T10:49:37.040Z,6.72
2023-02-28T10:52:19.320Z,5.63
2023-02-28T10:55:36.016Z,4.85
2023-02-28T10:58:53.466Z,5.32
2023-02-28T11:01:57.152Z,5.15
2023-02-28T11:07:41.494Z,5.97
2023-02-28T11:10:38.418Z,5.00
2023-02-28T11:13:32.108Z,5.07
2023-02-28T11:16:17.948Z,5.38
2023-02-28T11:19:09.042Z,5.55
2023-02-28T11:22:08.072Z,5.43
2023-02-28T11:25:01.337Z,5.25
2023-02-28T11:27:46.006Z,5.37
2023-02-28T11:30:50.264Z,4.88
2023-02-28T11:33:53.994Z,5.13
2023-02-28T11:39:26.616Z,5.30
2023-02-28T11:42:43.413Z,4.97
2023-02-28T11:45:54.694Z,5.45
2023-02-28T11:48:56.130Z,5.18
2023-02-28T11:52:10.806Z,5.90
2023-02-28T11:55:16.034Z,6.80
2023-02-28T11:58:05.801Z,5.95
2023-02-28T12:01:10.085Z,6.32
2023-02-28T12:04:04.800Z,5.55
2023-02-28T12:07:03.167Z,6.90
2023-02-28T12:10:17.571Z,5.95
2023-02-28T12:13:25.998Z,7.13
2023-02-28T12:16:33.506Z,6.95
2023-02-28T12:19:35.142Z,5.93
2023-02-28T12:22:46.712Z,6.57
2023-02-28T12:25:56.051Z,7.15
2023-02-28T12:28:54.353Z,8.02
2023-02-28T12:31:52.129Z,8.13
2023-02-28T12:34:42.485Z,8.38
2023-02-28T12:38:00.107Z,9.25
2023-02-28T12:41:19.488Z,9.32
2023-02-28T12:44:15.514Z,8.55
2023-02-28T12:47:04.418Z,9.80
2023-02-28T12:50:07.109Z,9.02
2023-02-28T12:53:14.853Z,9.07
2023-02-28T12:56:38.996Z,9.95
2023-02-28T12:59:29.568Z,10.60
2023-02-28T13:02:48.044Z,9.70
2023-02-28T13:06:07.523Z,8.80
2023-02-28T13:09:21.066Z,9.07
2023-02-28T13:12:04.476Z,10.18
2023-02-28T13:14:53.120Z,8.82
2023-02-28T13:17:36.409Z,8.93
2023-02-28T13:20:34.057Z,9.50
2023-02-28T13:24:00.147Z,10.02
2023-02-28T13:26:48.967Z,9.25
2023-02-28T13:29:39.541Z,9.43
2023-02-28T13:32:38.088Z,10.50
2023-02-28T13:35:23.342Z,9.77
2023-02-28T13:38:34.040Z,10.75
2023-02-28T13:41:55.493Z,10.57
2023-02-28T13:45:13.380Z,11.20
2023-02-28T13:48:02.539Z,12.95
2023-02-28T13:50:52.550Z,12.43
2023-02-28T13:54:00.838Z,12.63
2023-02-28T13:57:20.970Z,12.40
2023-02-28T14:00:37.145Z,13.73
2023-02-28T14:03:47.504Z,12.77
2023-02-28T14:06:45.109Z,11.77
2023-02-28T14:09:43.347Z,12.68
2023-02-28T14:13:09.073Z,13.02
2023-02-28T14:16:08.446Z,11.88
2023-02-28T14:19:13.014Z,13.00
2023-02-28T14:22:07.453Z,14.43
2023-02-28T14:25:16.121Z,13.45
2023-02-28T14:28:13.251Z,14.07
2023-02-28T14:31:21.010Z,13.50
2023-02-28T14:34:42.003Z,13.13
2023-02-28T14:37:37.391Z,13.38
2023-02-28T14:40:32.000Z,13.30
2023-02-28T14:43:27.378Z,13.75
2023-02-28T14:46:17.323Z,14.20
2023-02-28T14:49:00.514Z,13.88
2023-02-28T14:51:49.124Z,13.18
2023-02-28T14:54:38.650Z,12.85
2023-02-28T14:57:58.982Z,11.80
2023-02-28T15:00:57.268Z,12.63
2023-02-28T15:03:48.067Z,13.93
2023-02-28T15:06:36.335Z,16.60
2023-02-28T15:09:28.052Z,17.02
2023-02-28T15:12:20.232Z,17.05
2023-02-28T15:15:03.136Z,17.45
2023-02-28T15:17:56.299Z,18.60
2023-02-28T15:20:39.017Z,19.58
2023-02-28T15:23:24.205Z,20.65
2023-02-28T15:26:14.030Z,21.42
2023-02-28T15:29:04.412Z,26.77
2023-02-28T15:32:05.140Z,26.88
2023-02-28T15:34:53.336Z,28.10
2023-02-28T15:37:49.061Z,30.17
2023-02-28T15:40:44.328Z,27.23
2023-02-28T15:43:37.991Z,26.88
2023-02-28T15:46:29.411Z,20.58
2023-02-28T15:49:11.286Z,18.60
2023-02-28T15:52:03.021Z,16.13
2023-02-28T15:54:45.836Z,15.00
2023-02-28T15:57:38.063Z,13.68
2023-02-28T16:00:24.338Z,12.52
2023-02-28T16:03:33.049Z,10.95
2023-02-28T16:06:25.420Z,10.38
2023-02-28T16:09:17.060Z,10.38
2023-02-28T16:12:03.434Z,10.70
2023-02-28T16:14:53.956Z,11.98
2023-02-28T16:17:38.369Z,12.82
2023-02-28T16:20:36.081Z,12.35
2023-02-28T16:23:18.308Z,11.65
2023-02-28T16:26:07.065Z,11.73
2023-02-28T16:28:49.471Z,11.57
2023-02-28T16:31:39.048Z,12.55
2023-02-28T16:34:21.517Z,12.77
2023-02-28T16:37:10.122Z,14.13
2023-02-28T16:39:54.489Z,17.15
2023-02-28T16:42:43.032Z,19.25
2023-02-28T16:45:31.562Z,19.02
2023-02-28T16:48:25.358Z,19.05
2023-02-28T16:51:07.413Z,19.13
2023-02-28T16:54:03.008Z,17.70
2023-02-28T16:56:54.383Z,15.57
2023-02-28T16:59:38.089Z,16.48
2023-02-28T17:02:28.614Z,16.30
2023-02-28T17:05:12.071Z,15.70
2023-02-28T17:08:00.361Z,17.17
2023-02-28T17:10:43.087Z,18.25
2023-02-28T17:13:31.429Z,19.67
2023-02-28T17:16:14.007Z,17.45
2023-02-28T17:19:06.010Z,18.13
2023-02-28T17:21:50.449Z,18.55
2023-02-28T17:24:39.019Z,19.60
2023-02-28T17:27:22.406Z,20.98
2023-02-28T17:30:12.966Z,22.50
2023-02-28T17:32:55.681Z,22.88
2023-02-28T17:35:45.064Z,24.27
2023-02-28T17:38:28.341Z,25.90
2023-02-28T17:41:20.048Z,27.17
2023-02-28T17:44:02.454Z,27.45
2023-02-28T17:46:52.057Z,27.70
2023-02-28T17:49:35.292Z,28.55
2023-02-28T17:52:24.528Z,25.13
2023-02-28T17:55:14.547Z,24.13
2023-02-28T17:57:57.014Z,24.98
2023-02-28T18:00:45.354Z,27.75
2023-02-28T18:03:29.017Z,31.00
2023-02-28T18:06:43.065Z,33.15
2023-02-28T18:09:32.546Z,31.55
2023-02-28T18:12:21.055Z,28.02
2023-02-28T18:15:03.409Z,26.15
2023-02-28T18:17:53.676Z,26.05
2023-02-28T18:20:36.325Z,25.42
2023-02-28T18:23:27.058Z,22.38
2023-02-28T18:26:10.522Z,20.58
2023-02-28T18:28:59.027Z,19.03
2023-02-28T18:31:41.548Z,17.90
2023-02-28T18:34:31.052Z,16.85
2023-02-28T18:37:14.929Z,16.10
2023-02-28T18:40:04.078Z,16.70
2023-02-28T18:42:46.506Z,16.67
2023-02-28T18:45:35.981Z,17.65
2023-02-28T18:48:20.739Z,18.90
2023-02-28T18:51:22.018Z,18.50
2023-02-28T18:54:17.919Z,17.20
2023-02-28T18:57:07.033Z,18.70
2023-02-28T18:59:49.404Z,16.73
2023-02-28T19:02:38.421Z,19.30
2023-02-28T19:05:20.593Z,20.27
2023-02-28T19:08:09.995Z,20.27
2023-02-28T19:10:52.522Z,20.70
2023-02-28T19:13:41.071Z,22.58
2023-02-28T19:16:25.380Z,23.73
2023-02-28T19:19:13.998Z,21.48
2023-02-28T19:21:56.368Z,24.23
2023-02-28T19:24:44.976Z,23.17
2023-02-28T19:27:28.339Z,23.98
2023-02-28T19:30:19.997Z,23.08
2023-02-28T19:33:02.367Z,22.98
2023-02-28T19:35:51.039Z,23.13
2023-02-28T19:38:33.472Z,22.42
2023-02-28T19:41:22.988Z,24.05
2023-02-28T19:44:05.679Z,25.33
2023-02-28T19:46:54.967Z,26.17
2023-02-28T19:49:37.373Z,25.48
2023-02-28T19:52:25.906Z,25.90
2023-02-28T19:55:22.031Z,26.83
2023-02-28T19:58:11.863Z,27.25
2023-02-28T20:00:54.991Z,27.27
2023-02-28T20:03:44.324Z,29.02
2023-02-28T20:06:27.351Z,29.65
2023-02-28T20:09:15.400Z,30.30
2023-02-28T20:11:57.962Z,27.77
2023-02-28T20:14:47.376Z,28.07
2023-02-28T20:17:29.906Z,24.30
2023-02-28T20:20:18.988Z,21.25
2023-02-28T20:23:07.981Z,19.75
2023-02-28T20:25:56.217Z,19.27
2023-02-28T20:28:38.936Z,17.85
2023-02-28T20:31:31.685Z,16.33
2023-02-28T20:34:14.999Z,17.98
2023-02-28T20:37:00.685Z,15.47
2023-02-28T20:39:50.014Z,15.60
2023-02-28T20:42:38.455Z,15.95
2023-02-28T20:45:20.906Z,15.73
2023-02-28T20:48:03.323Z,15.50
2023-02-28T20:50:51.973Z,17.25
2023-02-28T20:53:42.983Z,15.60
2023-02-28T20:56:37.958Z,16.98
2023-02-28T20:59:28.799Z,17.05
2023-02-28T21:02:12.068Z,16.50
2023-02-28T21:05:02.420Z,17.30
2023-02-28T21:07:43.923Z,17.75
2023-02-28T21:10:34.834Z,19.38
2023-02-28T21:13:24.029Z,18.35
2023-02-28T21:16:18.442Z,18.55
2023-02-28T21:19:00.928Z,19.85
2023-02-28T21:21:45.622Z,22.27
2023-02-28T21:24:35.964Z,23.05
2023-02-28T21:27:24.317Z,22.17
2023-02-28T21:30:07.020Z,20.17
2023-02-28T21:32:55.994Z,19.02
2023-02-28T21:35:38.588Z,17.88
2023-02-28T21:38:27.980Z,18.00
2023-02-28T21:41:29.465Z,17.38
2023-02-28T21:44:26.007Z,17.00
2023-02-28T21:47:08.254Z,20.90
2023-02-28T21:49:57.071Z,21.55
2023-02-28T21:52:39.192Z,24.38
2023-02-28T21:55:35.080Z,26.13
2023-02-28T21:58:23.278Z,26.77
2023-02-28T22:01:22.952Z,27.25
2023-02-28T22:04:22.107Z,29.00
2023-02-28T22:07:04.965Z,28.55
2023-02-28T22:09:53.217Z,28.05
2023-02-28T22:12:38.960Z,28.83
2023-02-28T22:15:21.190Z,27.40
2023-02-28T22:18:09.916Z,26.92
2023-02-28T22:20:58.325Z,29.00
2023-02-28T22:23:47.289Z,29.27
2023-02-28T22:26:35.190Z,28.15
2023-02-28T22:29:16.995Z,27.65
2023-02-28T22:32:05.732Z,28.35
2023-02-28T22:34:48.883Z,28.67
2023-02-28T22:37:37.901Z,28.95
2023-02-28T22:40:27.965Z,29.55
2023-02-28T22:43:10.848Z,29.17
2023-02-28T22:46:00.196Z,28.05
2023-02-28T22:48:42.054Z,28.20
2023-02-28T22:51:33.965Z,28.33
2023-02-28T22:54:28.942Z,21.75
2023-02-28T22:57:17.197Z,19.42
2023-02-28T22:59:59.005Z,17.17
2023-02-28T23:02:47.194Z,15.77
2023-02-28T23:05:28.900Z,15.68
2023-02-28T23:08:18.019Z,15.05
2023-02-28T23:11:01.236Z,18.13
2023-02-28T23:13:49.898Z,19.75
2023-02-28T23:16:46.285Z,22.13
2023-02-28T23:19:37.916Z,25.45
2023-02-28T23:22:20.244Z,26.63
2023-02-28T23:25:09.338Z,31.45
2023-02-28T23:27:51.177Z,31.48
2023-02-28T23:30:40.954Z,35.55
2023-02-28T23:33:23.465Z,34.17
2023-02-28T23:36:22.908Z,33.22
2023-02-28T23:39:05.233Z,34.10
2023-02-28T23:41:54.956Z,33.42
2023-02-28T23:44:43.823Z,32.78
2023-02-28T23:47:32.887Z,34.55
2023-02-28T23:50:21.947Z,36.20
2023-02-28T23:53:10.154Z,36.20
2023-02-28T23:55:59.956Z,35.47
2023-02-28T23:58:48.903Z,35.67
